Moby Aki — IBVV — position and weather

sailwx.info

Track history (hours):
 
Tides and Currents Weather Stations Pressure Air Temp Water Temp Dewpoint Dewpoint Depression Visibility Wind Speed Wind Dir Waves Ship Positions

Moby Aki

Last reported at 2015-Aug-04 13:11 UTC. Time now 2015-Aug-04 13:54 UTC.
Position N 40°56' E 009°36'.

Length 175 m; draft 6.9 m.

Type: Passenger vessel. MMSI: 247132400.

Date/timePositionNaut miles runAvg speedWind from/ knotsBaromVisibWave heightAir tempDewpointWater temp
2015-Aug-04 13:11N 40°56' E 009°36'6423.6
2015-Aug-04 10:29N 41°59' E 009°52'3326.0
2015-Aug-04 09:13N 42°31' E 009°57'1726.0
2015-Aug-04 08:33N 42°48' E 010°00'2626.2
2015-Aug-04 07:34N 43°14' E 010°08'2020.0
2015-Aug-04 06:33N 43°33' E 010°17'1 0.6
2015-Aug-04 05:30N 43°33' E 010°18'0 0.2
2015-Aug-04 04:33N 43°33' E 010°18'1717.1
2015-Aug-04 03:34N 43°17' E 010°09'2525.1
2015-Aug-04 02:34N 42°53' E 010°01'2525.1
2015-Aug-04 01:33N 42°28' E 009°57'9114.2
2015-Aug-03 19:10N 40°58' E 009°40'1825.5
2015-Aug-03 18:26N 41°14' E 009°51'2325.7
2015-Aug-03 17:33N 41°35' E 010°02'2626.0
2015-Aug-03 16:33N 41°59' E 010°16'2626.3
2015-Aug-03 15:34N 42°24' E 010°28'2626.3
2015-Aug-03 14:34N 42°50' E 010°34'6 6.1
2015-Aug-03 13:33N 42°56' E 010°33'7 7.3
2015-Aug-03 12:34N 42°49' E 010°33'5325.3
2015-Aug-03 10:27N 41°57' E 010°14'28 3.5
2015-Aug-03 02:34N 42°20' E 009°53'2626.1
2015-Aug-03 01:33N 42°46' E 009°59'2626.3
2015-Aug-03 00:34N 43°12' E 010°07'2222.1
2015-Aug-02 23:33N 43°32' E 010°17'1 0.8
2015-Aug-02 22:31N 43°33' E 010°18'1 1.0
2015-Aug-02 21:33N 43°32' E 010°17'2121.2
2015-Aug-02 20:33N 43°13' E 010°07'2925.2
2015-Aug-02 19:24N 42°44' E 009°59'2225.8
2015-Aug-02 18:33N 42°23' E 009°55'19 2.4
2015-Aug-02 10:26N 42°03' E 009°52'2426.2
2015-Aug-02 09:30N 42°27' E 009°56'2526.2
2015-Aug-02 08:33N 42°52' E 010°03'2626.4
2015-Aug-02 07:34N 43°17' E 010°11'1715.9
2015-Aug-02 06:30N 43°33' E 010°18'0 0.0
2015-Aug-02 05:31N 43°33' E 010°18'1212.3
2015-Aug-02 04:34N 43°23' E 010°11'5525.3
2015-Aug-02 02:24N 42°29' E 009°57'39 4.7
2015-Aug-01 18:04N 41°52' E 010°13'1325.0
2015-Aug-01 17:33N 42°04' E 010°20'2625.4
2015-Aug-01 16:31N 42°29' E 010°29'2711.0
2015-Aug-01 14:03N 42°56' E 010°33'1120.5
2015-Aug-01 13:32N 42°45' E 010°33'2624.8
2015-Aug-01 12:29N 42°20' E 010°27'2324.7
2015-Aug-01 11:34N 41°59' E 010°15'2524.9
2015-Aug-01 10:33N 41°36' E 010°02'3025.4
2015-Aug-01 09:22N 41°08' E 009°45'7112.2
2015-Aug-01 03:33N 42°19' E 009°55'2725.0
2015-Aug-01 02:29N 42°45' E 009°60'2425.4
2015-Aug-01 01:33N 43°08' E 010°07'2424.0
2015-Aug-01 00:33N 43°32' E 010°15'3 2.5
2015-Jul-31 23:33N 43°33' E 010°18'0 0.0
2015-Jul-31 22:34N 43°33' E 010°18'1514.5
2015-Jul-31 21:33N 43°20' E 010°10'2323.0
2015-Jul-31 20:34N 42°58' E 010°02'2423.3
2015-Jul-31 19:32N 42°34' E 009°57'17 1.7
2015-Jul-31 09:32N 42°17' E 009°56'5226.1
2015-Jul-31 07:33N 43°08' E 010°06'2524.6
2015-Jul-31 06:33N 43°32' E 010°15'2 2.2
2015-Jul-31 05:33N 43°33' E 010°18'0 0.0
2015-Jul-31 04:33N 43°33' E 010°18'1616.0
2015-Jul-31 03:34N 43°19' E 010°09'3125.6
2015-Jul-31 02:20N 42°48' E 010°01'2426.0
2015-Jul-31 01:25N 42°24' E 009°56'2425.8
2015-Jul-31 00:30N 42°01' E 009°52'5325.8
2015-Jul-30 22:27N 41°09' E 009°42'1517.2
2015-Jul-30 21:33N 40°55' E 009°31'0 0.1
2015-Jul-30 20:23N 40°55' E 009°31'3 3.5
2015-Jul-30 19:34N 40°56' E 009°35'2120.6
2015-Jul-30 18:33N 41°13' E 009°50'2423.5
2015-Jul-30 17:32N 41°35' E 010°03'2824.3
2015-Jul-30 16:24N 42°00' E 010°17'2124.6
2015-Jul-30 15:34N 42°20' E 010°27'2626.0
2015-Jul-30 14:34N 42°45' E 010°33'1 0.4
2015-Jul-30 12:15N 42°44' E 010°33'2026.4
2015-Jul-30 11:28N 42°24' E 010°28'2426.0
2015-Jul-30 10:34N 42°02' E 010°17'2626.2
2015-Jul-30 09:33N 41°38' E 010°03'2626.4
2015-Jul-30 08:34N 41°14' E 009°47'2221.6
2015-Jul-30 07:33N 40°55' E 009°33'6 2.7
2015-Jul-30 05:23N 40°59' E 009°40'4826.1
2015-Jul-30 03:34N 41°46' E 009°44'3126.6
2015-Jul-30 02:23N 42°17' E 009°50'2426.0
2015-Jul-30 01:29N 42°40' E 009°55'2426.3
2015-Jul-30 00:33N 43°04' E 010°03'2525.4
2015-Jul-29 23:34N 43°28' E 010°12'6 6.1
2015-Jul-29 22:31N 43°33' E 010°18'0 0.0
2015-Jul-29 21:25N 43°33' E 010°18'1011.5
2015-Jul-29 20:34N 43°26' E 010°09'2625.7
2015-Jul-29 19:33N 43°01' E 009°58'2725.8
2015-Jul-29 18:31N 42°35' E 009°53'2526.4
2015-Jul-29 17:34N 42°10' E 009°50'2726.1
2015-Jul-29 16:31N 41°42' E 009°48'33 4.7
2015-Jul-29 09:32N 42°15' E 009°52'5126.0
2015-Jul-29 07:33N 43°06' E 010°03'2625.6
2015-Jul-29 06:34N 43°30' E 010°13'4 4.2
2015-Jul-29 05:32N 43°33' E 010°18'0 0.0
2015-Jul-29 04:33N 43°33' E 010°18'1211.9
2015-Jul-29 03:33N 43°26' E 010°05'2221.9
2015-Jul-29 02:33N 43°05' E 009°59'3221.7
2015-Jul-29 01:06N 42°33' E 009°54'16 1.0
2015-Jul-28 09:34N 42°18' E 009°54'3825.5
2015-Jul-28 08:04N 42°55' E 010°02'1325.7
2015-Jul-28 07:34N 43°08' E 010°06'2424.4
2015-Jul-28 06:33N 43°31' E 010°15'3 3.0
2015-Jul-28 05:33N 43°33' E 010°18'0 0.0
2015-Jul-28 04:33N 43°33' E 010°18'1313.1
2015-Jul-28 03:34N 43°24' E 010°06'2322.9
2015-Jul-28 02:34N 43°02' E 009°58'2423.4
2015-Jul-28 01:32N 42°38' E 009°53'10013.9
2015-Jul-27 18:20N 40°58' E 009°40'7425.6
2015-Jul-27 15:27N 42°05' E 010°20'2425.9
2015-Jul-27 14:31N 42°29' E 010°30'  
Track history (hours):
 
Tides and Currents Weather Stations Pressure Air Temp Water Temp Dewpoint Dewpoint Depression Visibility Wind Speed Wind Dir Waves Ship Positions

Moby Aki

Last reported at 2015-Aug-04 13:11 UTC. Time now 2015-Aug-04 13:54 UTC.
Position N 40°56' E 009°36'.

Length 175 m; draft 6.9 m.

Type: Passenger vessel. MMSI: 247132400.

Date/timePositionNaut miles runAvg speedWind from/ knotsBaromVisibWave heightAir tempDewpointWater temp
2015-Aug-04 13:11N 40°56' E 009°36'6423.6
2015-Aug-04 10:29N 41°59' E 009°52'3326.0
2015-Aug-04 09:13N 42°31' E 009°57'1726.0
2015-Aug-04 08:33N 42°48' E 010°00'2626.2
2015-Aug-04 07:34N 43°14' E 010°08'2020.0
2015-Aug-04 06:33N 43°33' E 010°17'1 0.6
2015-Aug-04 05:30N 43°33' E 010°18'0 0.2
2015-Aug-04 04:33N 43°33' E 010°18'1717.1
2015-Aug-04 03:34N 43°17' E 010°09'2525.1
2015-Aug-04 02:34N 42°53' E 010°01'2525.1
2015-Aug-04 01:33N 42°28' E 009°57'9114.2
2015-Aug-03 19:10N 40°58' E 009°40'1825.5
2015-Aug-03 18:26N 41°14' E 009°51'2325.7
2015-Aug-03 17:33N 41°35' E 010°02'2626.0
2015-Aug-03 16:33N 41°59' E 010°16'2626.3
2015-Aug-03 15:34N 42°24' E 010°28'2626.3
2015-Aug-03 14:34N 42°50' E 010°34'6 6.1
2015-Aug-03 13:33N 42°56' E 010°33'7 7.3
2015-Aug-03 12:34N 42°49' E 010°33'5325.3
2015-Aug-03 10:27N 41°57' E 010°14'28 3.5
2015-Aug-03 02:34N 42°20' E 009°53'2626.1
2015-Aug-03 01:33N 42°46' E 009°59'2626.3
2015-Aug-03 00:34N 43°12' E 010°07'2222.1
2015-Aug-02 23:33N 43°32' E 010°17'1 0.8
2015-Aug-02 22:31N 43°33' E 010°18'1 1.0
2015-Aug-02 21:33N 43°32' E 010°17'2121.2
2015-Aug-02 20:33N 43°13' E 010°07'2925.2
2015-Aug-02 19:24N 42°44' E 009°59'2225.8
2015-Aug-02 18:33N 42°23' E 009°55'19 2.4
2015-Aug-02 10:26N 42°03' E 009°52'2426.2
2015-Aug-02 09:30N 42°27' E 009°56'2526.2
2015-Aug-02 08:33N 42°52' E 010°03'2626.4
2015-Aug-02 07:34N 43°17' E 010°11'1715.9
2015-Aug-02 06:30N 43°33' E 010°18'0 0.0
2015-Aug-02 05:31N 43°33' E 010°18'1212.3
2015-Aug-02 04:34N 43°23' E 010°11'5525.3
2015-Aug-02 02:24N 42°29' E 009°57'39 4.7
2015-Aug-01 18:04N 41°52' E 010°13'1325.0
2015-Aug-01 17:33N 42°04' E 010°20'2625.4
2015-Aug-01 16:31N 42°29' E 010°29'2711.0
2015-Aug-01 14:03N 42°56' E 010°33'1120.5
2015-Aug-01 13:32N 42°45' E 010°33'2624.8
2015-Aug-01 12:29N 42°20' E 010°27'2324.7
2015-Aug-01 11:34N 41°59' E 010°15'2524.9
2015-Aug-01 10:33N 41°36' E 010°02'3025.4
2015-Aug-01 09:22N 41°08' E 009°45'7112.2
2015-Aug-01 03:33N 42°19' E 009°55'2725.0
2015-Aug-01 02:29N 42°45' E 009°60'2425.4
2015-Aug-01 01:33N 43°08' E 010°07'2424.0
2015-Aug-01 00:33N 43°32' E 010°15'3 2.5
2015-Jul-31 23:33N 43°33' E 010°18'0 0.0
2015-Jul-31 22:34N 43°33' E 010°18'1514.5
2015-Jul-31 21:33N 43°20' E 010°10'2323.0
2015-Jul-31 20:34N 42°58' E 010°02'2423.3
2015-Jul-31 19:32N 42°34' E 009°57'17 1.7
2015-Jul-31 09:32N 42°17' E 009°56'5226.1
2015-Jul-31 07:33N 43°08' E 010°06'2524.6
2015-Jul-31 06:33N 43°32' E 010°15'2 2.2
2015-Jul-31 05:33N 43°33' E 010°18'0 0.0
2015-Jul-31 04:33N 43°33' E 010°18'1616.0
2015-Jul-31 03:34N 43°19' E 010°09'3125.6
2015-Jul-31 02:20N 42°48' E 010°01'2426.0
2015-Jul-31 01:25N 42°24' E 009°56'2425.8
2015-Jul-31 00:30N 42°01' E 009°52'5325.8
2015-Jul-30 22:27N 41°09' E 009°42'1517.2
2015-Jul-30 21:33N 40°55' E 009°31'0 0.1
2015-Jul-30 20:23N 40°55' E 009°31'3 3.5
2015-Jul-30 19:34N 40°56' E 009°35'2120.6
2015-Jul-30 18:33N 41°13' E 009°50'2423.5
2015-Jul-30 17:32N 41°35' E 010°03'2824.3
2015-Jul-30 16:24N 42°00' E 010°17'2124.6
2015-Jul-30 15:34N 42°20' E 010°27'2626.0
2015-Jul-30 14:34N 42°45' E 010°33'1 0.4
2015-Jul-30 12:15N 42°44' E 010°33'2026.4
2015-Jul-30 11:28N 42°24' E 010°28'2426.0
2015-Jul-30 10:34N 42°02' E 010°17'2626.2
2015-Jul-30 09:33N 41°38' E 010°03'2626.4
2015-Jul-30 08:34N 41°14' E 009°47'2221.6
2015-Jul-30 07:33N 40°55' E 009°33'6 2.7
2015-Jul-30 05:23N 40°59' E 009°40'4826.1
2015-Jul-30 03:34N 41°46' E 009°44'3126.6
2015-Jul-30 02:23N 42°17' E 009°50'2426.0
2015-Jul-30 01:29N 42°40' E 009°55'2426.3
2015-Jul-30 00:33N 43°04' E 010°03'2525.4
2015-Jul-29 23:34N 43°28' E 010°12'6 6.1
2015-Jul-29 22:31N 43°33' E 010°18'0 0.0
2015-Jul-29 21:25N 43°33' E 010°18'1011.5
2015-Jul-29 20:34N 43°26' E 010°09'2625.7
2015-Jul-29 19:33N 43°01' E 009°58'2725.8
2015-Jul-29 18:31N 42°35' E 009°53'2526.4
2015-Jul-29 17:34N 42°10' E 009°50'2726.1
2015-Jul-29 16:31N 41°42' E 009°48'33 4.7
2015-Jul-29 09:32N 42°15' E 009°52'5126.0
2015-Jul-29 07:33N 43°06' E 010°03'2625.6
2015-Jul-29 06:34N 43°30' E 010°13'4 4.2
2015-Jul-29 05:32N 43°33' E 010°18'0 0.0
2015-Jul-29 04:33N 43°33' E 010°18'1211.9
2015-Jul-29 03:33N 43°26' E 010°05'2221.9
2015-Jul-29 02:33N 43°05' E 009°59'3221.7
2015-Jul-29 01:06N 42°33' E 009°54'16 1.0
2015-Jul-28 09:34N 42°18' E 009°54'3825.5
2015-Jul-28 08:04N 42°55' E 010°02'1325.7
2015-Jul-28 07:34N 43°08' E 010°06'2424.4
2015-Jul-28 06:33N 43°31' E 010°15'3 3.0
2015-Jul-28 05:33N 43°33' E 010°18'0 0.0
2015-Jul-28 04:33N 43°33' E 010°18'1313.1
2015-Jul-28 03:34N 43°24' E 010°06'2322.9
2015-Jul-28 02:34N 43°02' E 009°58'2423.4
2015-Jul-28 01:32N 42°38' E 009°53'10013.9
2015-Jul-27 18:20N 40°58' E 009°40'7425.6
2015-Jul-27 15:27N 42°05' E 010°20'2425.9
2015-Jul-27 14:31N 42°29' E 010°30'  

Dump ship's entire track history